Terminal Aerodrome Forecast
Issued by NWS

Home | Current Version | Previous Version | Text Only | Print | Product List | Glossary On
Versions: 1 2 3 4 5 6 7 8 9 10 11 12 13 14 15 16 17 18 19 20 21 22
000
FTUS41 KGYX 052325
TAFRKD
TAF
KRKD 052325Z 0600/0624 14006KT P6SM -RA OVC012
      TEMPO 0600/0602 P6SM NSW SCT015 BKN025 OVC080
     FM060200 34005KT P6SM BKN025 BKN080
     FM060400 33006KT P6SM SCT025 BKN080
     FM060600 34004KT P6SM SKC
     FM061300 34007KT P6SM SKC
      AMD LTD TO CLD VIS WIND=

USA.gov is the U.S. government's official web portal to all federal, state and local government web resources and services.